sensor_id;sensor_type;location;lat;lon;timestamp;P1;durP1;ratioP1;P2;durP2;ratioP2
23300;SDS011;11819;51.394;12.340;2023-05-10T00:00:07;10.85;;;7.85;;
23300;SDS011;11819;51.394;12.340;2023-05-10T00:02:38;10.70;;;7.20;;
23300;SDS011;11819;51.394;12.340;2023-05-10T00:05:04;10.18;;;7.32;;
23300;SDS011;11819;51.394;12.340;2023-05-10T00:07:30;10.15;;;7.47;;
23300;SDS011;11819;51.394;12.340;2023-05-10T00:09:55;9.98;;;7.53;;
23300;SDS011;11819;51.394;12.340;2023-05-10T00:12:21;10.18;;;6.82;;
23300;SDS011;11819;51.394;12.340;2023-05-10T00:14:47;11.07;;;7.50;;
23300;SDS011;11819;51.394;12.340;2023-05-10T00:17:12;10.93;;;7.50;;
23300;SDS011;11819;51.394;12.340;2023-05-10T00:19:38;9.65;;;6.90;;
23300;SDS011;11819;51.394;12.340;2023-05-10T00:22:04;9.52;;;6.88;;
23300;SDS011;11819;51.394;12.340;2023-05-10T00:24:29;10.27;;;7.60;;
23300;SDS011;11819;51.394;12.340;2023-05-10T00:26:55;10.45;;;7.25;;
23300;SDS011;11819;51.394;12.340;2023-05-10T00:29:22;11.55;;;7.15;;
23300;SDS011;11819;51.394;12.340;2023-05-10T00:31:47;11.40;;;6.93;;
23300;SDS011;11819;51.394;12.340;2023-05-10T00:34:15;9.68;;;6.55;;
23300;SDS011;11819;51.394;12.340;2023-05-10T00:36:41;10.98;;;7.68;;
23300;SDS011;11819;51.394;12.340;2023-05-10T00:39:06;11.90;;;7.57;;
23300;SDS011;11819;51.394;12.340;2023-05-10T00:41:32;10.02;;;6.65;;
23300;SDS011;11819;51.394;12.340;2023-05-10T00:43:59;9.23;;;6.63;;
23300;SDS011;11819;51.394;12.340;2023-05-10T00:46:25;10.38;;;7.32;;
23300;SDS011;11819;51.394;12.340;2023-05-10T00:48:52;12.45;;;6.88;;
23300;SDS011;11819;51.394;12.340;2023-05-10T00:51:18;9.38;;;6.90;;
23300;SDS011;11819;51.394;12.340;2023-05-10T00:53:45;8.90;;;7.15;;
23300;SDS011;11819;51.394;12.340;2023-05-10T00:56:11;16.05;;;8.18;;
23300;SDS011;11819;51.394;12.340;2023-05-10T00:58:38;10.85;;;6.75;;
23300;SDS011;11819;51.394;12.340;2023-05-10T01:01:04;9.10;;;6.95;;
23300;SDS011;11819;51.394;12.340;2023-05-10T01:03:31;10.93;;;6.97;;
23300;SDS011;11819;51.394;12.340;2023-05-10T01:05:57;9.93;;;6.50;;
23300;SDS011;11819;51.394;12.340;2023-05-10T01:08:23;9.95;;;6.80;;
23300;SDS011;11819;51.394;12.340;2023-05-10T01:10:49;10.38;;;6.90;;
23300;SDS011;11819;51.394;12.340;2023-05-10T01:13:23;9.70;;;6.85;;
23300;SDS011;11819;51.394;12.340;2023-05-10T01:15:56;13.13;;;7.18;;
23300;SDS011;11819;51.394;12.340;2023-05-10T01:18:23;9.68;;;7.03;;
23300;SDS011;11819;51.394;12.340;2023-05-10T01:20:53;9.27;;;6.93;;
23300;SDS011;11819;51.394;12.340;2023-05-10T01:23:45;11.60;;;7.05;;
23300;SDS011;11819;51.394;12.340;2023-05-10T01:34:53;10.68;;;6.97;;
23300;SDS011;11819;51.394;12.340;2023-05-10T01:37:27;10.10;;;6.85;;
23300;SDS011;11819;51.394;12.340;2023-05-10T01:40:23;8.85;;;6.97;;
23300;SDS011;11819;51.394;12.340;2023-05-10T01:42:59;11.23;;;6.95;;
23300;SDS011;11819;51.394;12.340;2023-05-10T01:45:28;10.48;;;7.13;;
23300;SDS011;11819;51.394;12.340;2023-05-10T01:48:03;9.77;;;6.82;;
23300;SDS011;11819;51.394;12.340;2023-05-10T01:50:32;9.02;;;6.57;;
23300;SDS011;11819;51.394;12.340;2023-05-10T01:52:59;9.40;;;6.45;;
23300;SDS011;11819;51.394;12.340;2023-05-10T01:55:28;10.70;;;7.68;;
23300;SDS011;11819;51.394;12.340;2023-05-10T01:58:00;10.48;;;6.97;;
23300;SDS011;11819;51.394;12.340;2023-05-10T02:00:35;11.57;;;7.15;;
23300;SDS011;11819;51.394;12.340;2023-05-10T02:03:03;10.52;;;7.30;;
23300;SDS011;11819;51.394;12.340;2023-05-10T02:05:31;10.57;;;7.25;;
23300;SDS011;11819;51.394;12.340;2023-05-10T02:07:58;12.55;;;7.47;;
23300;SDS011;11819;51.394;12.340;2023-05-10T02:10:27;9.90;;;7.15;;
23300;SDS011;11819;51.394;12.340;2023-05-10T02:12:54;11.15;;;6.57;;
23300;SDS011;11819;51.394;12.340;2023-05-10T02:15:23;9.43;;;6.88;;
23300;SDS011;11819;51.394;12.340;2023-05-10T02:17:51;9.40;;;6.65;;
23300;SDS011;11819;51.394;12.340;2023-05-10T02:20:19;9.18;;;6.63;;
23300;SDS011;11819;51.394;12.340;2023-05-10T02:22:47;9.65;;;6.40;;
23300;SDS011;11819;51.394;12.340;2023-05-10T02:25:15;10.43;;;7.13;;
23300;SDS011;11819;51.394;12.340;2023-05-10T02:27:42;10.10;;;7.18;;
23300;SDS011;11819;51.394;12.340;2023-05-10T02:30:09;9.18;;;6.78;;
23300;SDS011;11819;51.394;12.340;2023-05-10T02:32:36;12.73;;;7.45;;
23300;SDS011;11819;51.394;12.340;2023-05-10T02:35:03;9.20;;;7.00;;
23300;SDS011;11819;51.394;12.340;2023-05-10T02:37:30;10.32;;;6.47;;
23300;SDS011;11819;51.394;12.340;2023-05-10T02:39:58;12.60;;;7.63;;
23300;SDS011;11819;51.394;12.340;2023-05-10T02:42:26;10.27;;;7.07;;
23300;SDS011;11819;51.394;12.340;2023-05-10T02:44:59;9.65;;;6.80;;
23300;SDS011;11819;51.394;12.340;2023-05-10T02:47:27;11.35;;;7.18;;
23300;SDS011;11819;51.394;12.340;2023-05-10T02:49:53;10.05;;;7.57;;
23300;SDS011;11819;51.394;12.340;2023-05-10T02:52:25;8.98;;;6.72;;
23300;SDS011;11819;51.394;12.340;2023-05-10T02:54:55;13.13;;;7.22;;
23300;SDS011;11819;51.394;12.340;2023-05-10T02:57:27;10.20;;;6.60;;
23300;SDS011;11819;51.394;12.340;2023-05-10T02:59:58;11.50;;;6.80;;
23300;SDS011;11819;51.394;12.340;2023-05-10T03:02:25;8.90;;;6.78;;
23300;SDS011;11819;51.394;12.340;2023-05-10T03:04:51;11.52;;;7.43;;
23300;SDS011;11819;51.394;12.340;2023-05-10T03:07:17;9.73;;;6.40;;
23300;SDS011;11819;51.394;12.340;2023-05-10T03:09:47;9.35;;;6.65;;
23300;SDS011;11819;51.394;12.340;2023-05-10T03:12:15;8.90;;;6.78;;
23300;SDS011;11819;51.394;12.340;2023-05-10T03:15:11;11.00;;;7.10;;
23300;SDS011;11819;51.394;12.340;2023-05-10T03:18:01;10.32;;;7.30;;
23300;SDS011;11819;51.394;12.340;2023-05-10T03:20:35;11.02;;;7.03;;
23300;SDS011;11819;51.394;12.340;2023-05-10T03:25:51;10.55;;;6.93;;
23300;SDS011;11819;51.394;12.340;2023-05-10T03:28:18;11.20;;;7.20;;
23300;SDS011;11819;51.394;12.340;2023-05-10T03:30:44;11.38;;;7.00;;
23300;SDS011;11819;51.394;12.340;2023-05-10T03:33:11;9.98;;;6.85;;
23300;SDS011;11819;51.394;12.340;2023-05-10T03:35:40;11.38;;;7.15;;
23300;SDS011;11819;51.394;12.340;2023-05-10T03:38:06;10.52;;;7.25;;
23300;SDS011;11819;51.394;12.340;2023-05-10T03:40:32;10.45;;;6.93;;
23300;SDS011;11819;51.394;12.340;2023-05-10T03:42:58;9.32;;;6.70;;
23300;SDS011;11819;51.394;12.340;2023-05-10T03:45:25;10.25;;;6.78;;
23300;SDS011;11819;51.394;12.340;2023-05-10T03:47:50;11.02;;;7.57;;
23300;SDS011;11819;51.394;12.340;2023-05-10T03:50:16;9.75;;;6.50;;
23300;SDS011;11819;51.394;12.340;2023-05-10T03:52:43;9.88;;;6.45;;
23300;SDS011;11819;51.394;12.340;2023-05-10T03:55:09;11.13;;;6.95;;
23300;SDS011;11819;51.394;12.340;2023-05-10T03:57:36;10.55;;;6.80;;
23300;SDS011;11819;51.394;12.340;2023-05-10T04:00:02;10.52;;;7.20;;
23300;SDS011;11819;51.394;12.340;2023-05-10T04:02:39;11.15;;;6.90;;
23300;SDS011;11819;51.394;12.340;2023-05-10T04:05:07;10.38;;;7.00;;
23300;SDS011;11819;51.394;12.340;2023-05-10T04:07:33;10.20;;;7.55;;
23300;SDS011;11819;51.394;12.340;2023-05-10T04:09:58;11.98;;;7.47;;
23300;SDS011;11819;51.394;12.340;2023-05-10T04:12:24;10.20;;;7.10;;
23300;SDS011;11819;51.394;12.340;2023-05-10T04:14:52;11.02;;;6.97;;
23300;SDS011;11819;51.394;12.340;2023-05-10T04:17:17;9.95;;;6.28;;
23300;SDS011;11819;51.394;12.340;2023-05-10T04:19:43;12.93;;;6.90;;
23300;SDS011;11819;51.394;12.340;2023-05-10T04:22:09;11.73;;;7.03;;
23300;SDS011;11819;51.394;12.340;2023-05-10T04:24:34;10.35;;;6.60;;
23300;SDS011;11819;51.394;12.340;2023-05-10T04:27:00;12.88;;;7.57;;
23300;SDS011;11819;51.394;12.340;2023-05-10T04:29:26;9.65;;;6.65;;
23300;SDS011;11819;51.394;12.340;2023-05-10T04:31:52;9.18;;;6.32;;
23300;SDS011;11819;51.394;12.340;2023-05-10T04:34:19;9.90;;;7.05;;
23300;SDS011;11819;51.394;12.340;2023-05-10T04:36:45;10.70;;;6.57;;
23300;SDS011;11819;51.394;12.340;2023-05-10T04:39:11;10.07;;;6.75;;
23300;SDS011;11819;51.394;12.340;2023-05-10T04:41:37;8.95;;;6.15;;
23300;SDS011;11819;51.394;12.340;2023-05-10T04:44:03;9.93;;;6.80;;
23300;SDS011;11819;51.394;12.340;2023-05-10T04:46:28;9.02;;;6.80;;
23300;SDS011;11819;51.394;12.340;2023-05-10T04:48:55;9.40;;;6.35;;
23300;SDS011;11819;51.394;12.340;2023-05-10T04:51:20;9.18;;;6.43;;
23300;SDS011;11819;51.394;12.340;2023-05-10T04:53:46;9.75;;;7.03;;
23300;SDS011;11819;51.394;12.340;2023-05-10T04:56:11;10.38;;;6.85;;
23300;SDS011;11819;51.394;12.340;2023-05-10T04:58:37;10.50;;;6.90;;
23300;SDS011;11819;51.394;12.340;2023-05-10T05:01:06;10.00;;;6.95;;
23300;SDS011;11819;51.394;12.340;2023-05-10T05:03:36;9.45;;;6.28;;
23300;SDS011;11819;51.394;12.340;2023-05-10T05:06:02;11.70;;;7.18;;
23300;SDS011;11819;51.394;12.340;2023-05-10T05:08:28;11.38;;;6.95;;
23300;SDS011;11819;51.394;12.340;2023-05-10T05:10:53;9.32;;;6.65;;
23300;SDS011;11819;51.394;12.340;2023-05-10T05:13:19;11.05;;;6.68;;
23300;SDS011;11819;51.394;12.340;2023-05-10T05:15:45;10.05;;;6.45;;
23300;SDS011;11819;51.394;12.340;2023-05-10T05:18:12;12.50;;;6.63;;
23300;SDS011;11819;51.394;12.340;2023-05-10T05:20:38;8.73;;;6.35;;
23300;SDS011;11819;51.394;12.340;2023-05-10T05:23:04;9.02;;;6.30;;
23300;SDS011;11819;51.394;12.340;2023-05-10T05:25:29;9.93;;;6.60;;
23300;SDS011;11819;51.394;12.340;2023-05-10T05:27:55;11.57;;;6.88;;
23300;SDS011;11819;51.394;12.340;2023-05-10T05:30:20;9.98;;;6.38;;
23300;SDS011;11819;51.394;12.340;2023-05-10T05:32:46;10.95;;;7.15;;
23300;SDS011;11819;51.394;12.340;2023-05-10T05:35:14;11.30;;;7.10;;
23300;SDS011;11819;51.394;12.340;2023-05-10T05:37:40;11.15;;;6.65;;
23300;SDS011;11819;51.394;12.340;2023-05-10T05:40:06;10.30;;;6.88;;
23300;SDS011;11819;51.394;12.340;2023-05-10T05:42:32;12.60;;;7.13;;
23300;SDS011;11819;51.394;12.340;2023-05-10T05:44:58;10.88;;;6.88;;
23300;SDS011;11819;51.394;12.340;2023-05-10T05:47:24;10.45;;;7.60;;
23300;SDS011;11819;51.394;12.340;2023-05-10T05:49:51;8.98;;;6.47;;
23300;SDS011;11819;51.394;12.340;2023-05-10T05:52:17;10.75;;;6.60;;
23300;SDS011;11819;51.394;12.340;2023-05-10T05:54:43;11.13;;;7.10;;
23300;SDS011;11819;51.394;12.340;2023-05-10T05:57:09;11.50;;;6.40;;
23300;SDS011;11819;51.394;12.340;2023-05-10T05:59:34;10.43;;;7.43;;
23300;SDS011;11819;51.394;12.340;2023-05-10T06:02:00;10.45;;;6.22;;
23300;SDS011;11819;51.394;12.340;2023-05-10T06:04:25;9.60;;;6.60;;
23300;SDS011;11819;51.394;12.340;2023-05-10T06:06:51;9.05;;;6.28;;
23300;SDS011;11819;51.394;12.340;2023-05-10T06:09:17;9.32;;;6.30;;
23300;SDS011;11819;51.394;12.340;2023-05-10T06:11:42;10.07;;;6.65;;
23300;SDS011;11819;51.394;12.340;2023-05-10T06:14:08;9.55;;;6.40;;
23300;SDS011;11819;51.394;12.340;2023-05-10T06:16:34;10.27;;;6.93;;
23300;SDS011;11819;51.394;12.340;2023-05-10T06:19:00;10.07;;;5.88;;
23300;SDS011;11819;51.394;12.340;2023-05-10T06:21:25;9.93;;;6.47;;
23300;SDS011;11819;51.394;12.340;2023-05-10T06:23:51;10.85;;;6.70;;
23300;SDS011;11819;51.394;12.340;2023-05-10T06:26:17;8.50;;;6.05;;
23300;SDS011;11819;51.394;12.340;2023-05-10T06:28:42;13.68;;;7.05;;
23300;SDS011;11819;51.394;12.340;2023-05-10T06:31:08;11.52;;;6.50;;
23300;SDS011;11819;51.394;12.340;2023-05-10T06:33:36;10.43;;;6.72;;
23300;SDS011;11819;51.394;12.340;2023-05-10T06:36:02;10.63;;;6.85;;
23300;SDS011;11819;51.394;12.340;2023-05-10T06:38:28;10.98;;;6.47;;
23300;SDS011;11819;51.394;12.340;2023-05-10T06:40:53;8.15;;;6.35;;
23300;SDS011;11819;51.394;12.340;2023-05-10T06:43:19;10.48;;;6.75;;
23300;SDS011;11819;51.394;12.340;2023-05-10T06:45:44;10.93;;;6.97;;
23300;SDS011;11819;51.394;12.340;2023-05-10T06:48:10;9.25;;;6.90;;
23300;SDS011;11819;51.394;12.340;2023-05-10T06:50:38;11.50;;;6.53;;
23300;SDS011;11819;51.394;12.340;2023-05-10T06:53:04;9.32;;;6.32;;
23300;SDS011;11819;51.394;12.340;2023-05-10T06:55:30;9.18;;;6.53;;
23300;SDS011;11819;51.394;12.340;2023-05-10T06:57:55;8.05;;;6.20;;
23300;SDS011;11819;51.394;12.340;2023-05-10T07:00:22;8.77;;;6.45;;
23300;SDS011;11819;51.394;12.340;2023-05-10T07:02:47;10.50;;;6.88;;
23300;SDS011;11819;51.394;12.340;2023-05-10T07:05:13;10.02;;;5.97;;
23300;SDS011;11819;51.394;12.340;2023-05-10T07:07:40;9.57;;;6.90;;
23300;SDS011;11819;51.394;12.340;2023-05-10T07:10:06;11.55;;;6.43;;
23300;SDS011;11819;51.394;12.340;2023-05-10T07:12:32;9.55;;;6.03;;
23300;SDS011;11819;51.394;12.340;2023-05-10T07:14:58;9.90;;;6.53;;
23300;SDS011;11819;51.394;12.340;2023-05-10T07:17:24;9.75;;;6.43;;
23300;SDS011;11819;51.394;12.340;2023-05-10T07:19:49;7.88;;;5.97;;
23300;SDS011;11819;51.394;12.340;2023-05-10T07:22:15;9.18;;;6.32;;
23300;SDS011;11819;51.394;12.340;2023-05-10T07:24:42;9.32;;;6.78;;
23300;SDS011;11819;51.394;12.340;2023-05-10T07:27:08;10.23;;;6.47;;
23300;SDS011;11819;51.394;12.340;2023-05-10T07:29:34;9.50;;;5.82;;
23300;SDS011;11819;51.394;12.340;2023-05-10T07:32:00;10.63;;;6.03;;
23300;SDS011;11819;51.394;12.340;2023-05-10T07:34:26;12.10;;;6.28;;
23300;SDS011;11819;51.394;12.340;2023-05-10T07:36:52;11.13;;;6.80;;
23300;SDS011;11819;51.394;12.340;2023-05-10T07:39:17;9.85;;;6.35;;
23300;SDS011;11819;51.394;12.340;2023-05-10T07:41:43;10.23;;;6.70;;
23300;SDS011;11819;51.394;12.340;2023-05-10T07:44:09;10.25;;;6.40;;
23300;SDS011;11819;51.394;12.340;2023-05-10T07:46:34;8.98;;;6.07;;
23300;SDS011;11819;51.394;12.340;2023-05-10T07:49:00;9.00;;;6.53;;
23300;SDS011;11819;51.394;12.340;2023-05-10T07:51:26;8.52;;;6.05;;
23300;SDS011;11819;51.394;12.340;2023-05-10T07:53:53;9.07;;;6.07;;
23300;SDS011;11819;51.394;12.340;2023-05-10T07:56:25;9.15;;;6.38;;
23300;SDS011;11819;51.394;12.340;2023-05-10T07:58:55;9.95;;;6.57;;
23300;SDS011;11819;51.394;12.340;2023-05-10T08:01:22;9.10;;;6.47;;
23300;SDS011;11819;51.394;12.340;2023-05-10T08:03:49;9.38;;;6.38;;
23300;SDS011;11819;51.394;12.340;2023-05-10T08:06:16;9.27;;;6.75;;
23300;SDS011;11819;51.394;12.340;2023-05-10T08:08:42;10.98;;;7.00;;
23300;SDS011;11819;51.394;12.340;2023-05-10T08:11:08;11.10;;;6.63;;
23300;SDS011;11819;51.394;12.340;2023-05-10T08:13:34;10.38;;;6.95;;
23300;SDS011;11819;51.394;12.340;2023-05-10T08:16:00;8.18;;;6.60;;
23300;SDS011;11819;51.394;12.340;2023-05-10T08:18:26;9.07;;;6.90;;
23300;SDS011;11819;51.394;12.340;2023-05-10T08:20:53;9.23;;;7.10;;
23300;SDS011;11819;51.394;12.340;2023-05-10T08:23:19;11.10;;;6.80;;
23300;SDS011;11819;51.394;12.340;2023-05-10T08:25:44;9.82;;;6.93;;
23300;SDS011;11819;51.394;12.340;2023-05-10T08:28:10;8.75;;;6.05;;
23300;SDS011;11819;51.394;12.340;2023-05-10T08:30:35;9.27;;;6.88;;
23300;SDS011;11819;51.394;12.340;2023-05-10T08:33:01;9.15;;;6.95;;
23300;SDS011;11819;51.394;12.340;2023-05-10T08:35:27;9.07;;;6.40;;
23300;SDS011;11819;51.394;12.340;2023-05-10T08:37:52;9.70;;;7.07;;
23300;SDS011;11819;51.394;12.340;2023-05-10T08:40:19;10.55;;;7.15;;
23300;SDS011;11819;51.394;12.340;2023-05-10T08:42:48;9.68;;;6.63;;
23300;SDS011;11819;51.394;12.340;2023-05-10T08:45:21;9.95;;;7.00;;
23300;SDS011;11819;51.394;12.340;2023-05-10T08:47:48;8.90;;;6.47;;
23300;SDS011;11819;51.394;12.340;2023-05-10T08:50:15;9.70;;;7.10;;
23300;SDS011;11819;51.394;12.340;2023-05-10T08:52:42;9.93;;;7.45;;
23300;SDS011;11819;51.394;12.340;2023-05-10T08:55:09;8.95;;;6.90;;
23300;SDS011;11819;51.394;12.340;2023-05-10T08:57:35;8.68;;;6.57;;
23300;SDS011;11819;51.394;12.340;2023-05-10T09:00:01;8.75;;;6.70;;
23300;SDS011;11819;51.394;12.340;2023-05-10T09:02:27;10.48;;;7.40;;
23300;SDS011;11819;51.394;12.340;2023-05-10T09:04:53;9.85;;;7.35;;
23300;SDS011;11819;51.394;12.340;2023-05-10T09:07:19;9.90;;;6.97;;
23300;SDS011;11819;51.394;12.340;2023-05-10T09:09:45;10.15;;;7.30;;
23300;SDS011;11819;51.394;12.340;2023-05-10T09:12:11;9.35;;;7.25;;
23300;SDS011;11819;51.394;12.340;2023-05-10T09:14:38;12.90;;;7.88;;
23300;SDS011;11819;51.394;12.340;2023-05-10T09:17:04;11.05;;;7.85;;
23300;SDS011;11819;51.394;12.340;2023-05-10T09:19:30;10.18;;;7.68;;
23300;SDS011;11819;51.394;12.340;2023-05-10T09:21:56;9.80;;;7.78;;
23300;SDS011;11819;51.394;12.340;2023-05-10T09:24:25;9.30;;;7.93;;
23300;SDS011;11819;51.394;12.340;2023-05-10T09:26:52;10.48;;;7.82;;
23300;SDS011;11819;51.394;12.340;2023-05-10T09:29:17;13.25;;;8.13;;
23300;SDS011;11819;51.394;12.340;2023-05-10T09:31:50;12.13;;;8.95;;
23300;SDS011;11819;51.394;12.340;2023-05-10T09:34:17;12.75;;;8.20;;
23300;SDS011;11819;51.394;12.340;2023-05-10T09:37:00;10.98;;;8.60;;
23300;SDS011;11819;51.394;12.340;2023-05-10T09:39:37;12.93;;;8.40;;
23300;SDS011;11819;51.394;12.340;2023-05-10T09:42:08;12.57;;;9.35;;
23300;SDS011;11819;51.394;12.340;2023-05-10T09:44:35;12.57;;;8.23;;
23300;SDS011;11819;51.394;12.340;2023-05-10T09:47:01;14.20;;;9.35;;
23300;SDS011;11819;51.394;12.340;2023-05-10T09:49:27;13.18;;;9.40;;
23300;SDS011;11819;51.394;12.340;2023-05-10T09:52:03;15.27;;;9.25;;
23300;SDS011;11819;51.394;12.340;2023-05-10T09:54:30;15.70;;;10.27;;
23300;SDS011;11819;51.394;12.340;2023-05-10T09:56:56;13.27;;;9.65;;
23300;SDS011;11819;51.394;12.340;2023-05-10T09:59:21;24.02;;;13.15;;
23300;SDS011;11819;51.394;12.340;2023-05-10T10:01:51;15.07;;;10.43;;
23300;SDS011;11819;51.394;12.340;2023-05-10T10:04:17;12.75;;;9.80;;
23300;SDS011;11819;51.394;12.340;2023-05-10T10:06:44;13.55;;;9.95;;
23300;SDS011;11819;51.394;12.340;2023-05-10T10:09:10;13.00;;;10.50;;
23300;SDS011;11819;51.394;12.340;2023-05-10T10:11:36;15.70;;;9.85;;
23300;SDS011;11819;51.394;12.340;2023-05-10T10:14:03;13.25;;;9.57;;
23300;SDS011;11819;51.394;12.340;2023-05-10T10:16:29;13.43;;;10.35;;
23300;SDS011;11819;51.394;12.340;2023-05-10T10:18:55;14.48;;;10.40;;
23300;SDS011;11819;51.394;12.340;2023-05-10T10:21:22;12.75;;;10.13;;
23300;SDS011;11819;51.394;12.340;2023-05-10T10:23:48;16.67;;;13.38;;
23300;SDS011;11819;51.394;12.340;2023-05-10T10:26:14;14.23;;;10.68;;
23300;SDS011;11819;51.394;12.340;2023-05-10T10:28:45;14.70;;;10.43;;
23300;SDS011;11819;51.394;12.340;2023-05-10T10:34:07;14.95;;;10.63;;
23300;SDS011;11819;51.394;12.340;2023-05-10T10:36:47;14.25;;;10.65;;
23300;SDS011;11819;51.394;12.340;2023-05-10T10:39:13;12.23;;;9.68;;
23300;SDS011;11819;51.394;12.340;2023-05-10T10:41:41;15.77;;;11.10;;
23300;SDS011;11819;51.394;12.340;2023-05-10T10:47:03;13.45;;;10.75;;
23300;SDS011;11819;51.394;12.340;2023-05-10T10:55:08;13.23;;;10.65;;
23300;SDS011;11819;51.394;12.340;2023-05-10T11:02:57;14.63;;;10.38;;
23300;SDS011;11819;51.394;12.340;2023-05-10T11:05:24;13.20;;;10.25;;
23300;SDS011;11819;51.394;12.340;2023-05-10T11:08:07;15.40;;;11.38;;
23300;SDS011;11819;51.394;12.340;2023-05-10T11:13:37;15.27;;;11.80;;
23300;SDS011;11819;51.394;12.340;2023-05-10T11:18:36;15.13;;;12.18;;
23300;SDS011;11819;51.394;12.340;2023-05-10T11:21:03;15.13;;;12.32;;
23300;SDS011;11819;51.394;12.340;2023-05-10T11:26:09;14.02;;;12.10;;
23300;SDS011;11819;51.394;12.340;2023-05-10T11:28:43;14.77;;;12.35;;
23300;SDS011;11819;51.394;12.340;2023-05-10T11:31:08;16.05;;;12.25;;
23300;SDS011;11819;51.394;12.340;2023-05-10T11:36:11;15.38;;;11.85;;
23300;SDS011;11819;51.394;12.340;2023-05-10T11:38:41;15.70;;;12.55;;
23300;SDS011;11819;51.394;12.340;2023-05-10T11:41:10;14.63;;;11.43;;
23300;SDS011;11819;51.394;12.340;2023-05-10T11:43:40;16.33;;;12.15;;
23300;SDS011;11819;51.394;12.340;2023-05-10T11:46:10;15.10;;;12.25;;
23300;SDS011;11819;51.394;12.340;2023-05-10T11:48:40;15.65;;;11.85;;
23300;SDS011;11819;51.394;12.340;2023-05-10T11:51:07;16.27;;;12.20;;
23300;SDS011;11819;51.394;12.340;2023-05-10T11:53:33;15.77;;;12.45;;
23300;SDS011;11819;51.394;12.340;2023-05-10T11:56:03;17.38;;;12.80;;
23300;SDS011;11819;51.394;12.340;2023-05-10T11:58:29;15.00;;;12.50;;
23300;SDS011;11819;51.394;12.340;2023-05-10T12:00:56;16.10;;;12.90;;
23300;SDS011;11819;51.394;12.340;2023-05-10T12:03:22;17.20;;;13.40;;
23300;SDS011;11819;51.394;12.340;2023-05-10T12:05:48;15.85;;;12.02;;
23300;SDS011;11819;51.394;12.340;2023-05-10T12:08:14;17.75;;;12.80;;
23300;SDS011;11819;51.394;12.340;2023-05-10T12:10:41;15.57;;;12.35;;
23300;SDS011;11819;51.394;12.340;2023-05-10T12:13:16;15.55;;;12.70;;
23300;SDS011;11819;51.394;12.340;2023-05-10T12:15:42;18.10;;;13.52;;
23300;SDS011;11819;51.394;12.340;2023-05-10T12:18:09;18.48;;;14.15;;
23300;SDS011;11819;51.394;12.340;2023-05-10T12:20:35;16.60;;;14.25;;
23300;SDS011;11819;51.394;12.340;2023-05-10T12:23:01;17.75;;;13.70;;
23300;SDS011;11819;51.394;12.340;2023-05-10T12:25:35;18.70;;;15.50;;
23300;SDS011;11819;51.394;12.340;2023-05-10T12:28:06;19.00;;;14.00;;
23300;SDS011;11819;51.394;12.340;2023-05-10T12:30:34;17.33;;;13.80;;
23300;SDS011;11819;51.394;12.340;2023-05-10T12:33:07;17.20;;;13.98;;
23300;SDS011;11819;51.394;12.340;2023-05-10T12:35:32;19.40;;;15.20;;
23300;SDS011;11819;51.394;12.340;2023-05-10T12:37:58;16.85;;;14.82;;
23300;SDS011;11819;51.394;12.340;2023-05-10T12:40:24;18.08;;;15.63;;
23300;SDS011;11819;51.394;12.340;2023-05-10T12:42:50;16.75;;;14.88;;
23300;SDS011;11819;51.394;12.340;2023-05-10T12:45:17;18.67;;;15.45;;
23300;SDS011;11819;51.394;12.340;2023-05-10T12:47:43;19.00;;;14.63;;
23300;SDS011;11819;51.394;12.340;2023-05-10T12:50:09;18.52;;;15.02;;
23300;SDS011;11819;51.394;12.340;2023-05-10T12:52:36;18.65;;;14.32;;
23300;SDS011;11819;51.394;12.340;2023-05-10T12:55:02;16.38;;;13.50;;
23300;SDS011;11819;51.394;12.340;2023-05-10T12:57:28;17.05;;;13.85;;
23300;SDS011;11819;51.394;12.340;2023-05-10T12:59:54;15.85;;;13.13;;
23300;SDS011;11819;51.394;12.340;2023-05-10T13:02:20;16.70;;;14.25;;
23300;SDS011;11819;51.394;12.340;2023-05-10T13:04:48;15.10;;;12.85;;
23300;SDS011;11819;51.394;12.340;2023-05-10T13:07:14;15.30;;;13.02;;
23300;SDS011;11819;51.394;12.340;2023-05-10T13:09:40;14.65;;;13.05;;
23300;SDS011;11819;51.394;12.340;2023-05-10T13:12:05;15.90;;;13.45;;
23300;SDS011;11819;51.394;12.340;2023-05-10T13:14:31;18.70;;;13.68;;
23300;SDS011;11819;51.394;12.340;2023-05-10T13:16:57;15.63;;;13.65;;
23300;SDS011;11819;51.394;12.340;2023-05-10T13:19:22;16.73;;;13.70;;
23300;SDS011;11819;51.394;12.340;2023-05-10T13:21:50;15.18;;;13.15;;
23300;SDS011;11819;51.394;12.340;2023-05-10T13:24:17;14.90;;;13.32;;
23300;SDS011;11819;51.394;12.340;2023-05-10T13:26:42;15.70;;;13.52;;
23300;SDS011;11819;51.394;12.340;2023-05-10T13:29:08;16.33;;;13.55;;
23300;SDS011;11819;51.394;12.340;2023-05-10T13:31:34;15.13;;;13.50;;
23300;SDS011;11819;51.394;12.340;2023-05-10T13:34:01;15.43;;;13.32;;
23300;SDS011;11819;51.394;12.340;2023-05-10T13:36:27;15.55;;;13.88;;
23300;SDS011;11819;51.394;12.340;2023-05-10T13:38:53;17.95;;;14.13;;
23300;SDS011;11819;51.394;12.340;2023-05-10T13:41:18;15.60;;;13.88;;
23300;SDS011;11819;51.394;12.340;2023-05-10T13:43:44;17.20;;;14.52;;
23300;SDS011;11819;51.394;12.340;2023-05-10T13:46:10;16.02;;;13.02;;
23300;SDS011;11819;51.394;12.340;2023-05-10T13:48:35;15.43;;;13.70;;
23300;SDS011;11819;51.394;12.340;2023-05-10T13:51:04;17.48;;;14.55;;
23300;SDS011;11819;51.394;12.340;2023-05-10T13:53:29;14.43;;;12.77;;
23300;SDS011;11819;51.394;12.340;2023-05-10T13:55:55;14.57;;;12.70;;
23300;SDS011;11819;51.394;12.340;2023-05-10T13:58:22;15.48;;;13.55;;
23300;SDS011;11819;51.394;12.340;2023-05-10T14:00:48;13.90;;;12.40;;
23300;SDS011;11819;51.394;12.340;2023-05-10T14:03:14;15.82;;;12.00;;
23300;SDS011;11819;51.394;12.340;2023-05-10T14:05:39;16.10;;;11.77;;
23300;SDS011;11819;51.394;12.340;2023-05-10T14:08:05;16.10;;;11.60;;
23300;SDS011;11819;51.394;12.340;2023-05-10T14:10:31;10.55;;;8.88;;
23300;SDS011;11819;51.394;12.340;2023-05-10T14:12:56;10.35;;;8.00;;
23300;SDS011;11819;51.394;12.340;2023-05-10T14:15:23;11.15;;;8.45;;
23300;SDS011;11819;51.394;12.340;2023-05-10T14:17:49;8.15;;;6.20;;
23300;SDS011;11819;51.394;12.340;2023-05-10T14:20:17;9.15;;;5.75;;
23300;SDS011;11819;51.394;12.340;2023-05-10T14:22:43;4.97;;;3.70;;
23300;SDS011;11819;51.394;12.340;2023-05-10T14:25:08;5.72;;;3.35;;
23300;SDS011;11819;51.394;12.340;2023-05-10T14:27:34;5.35;;;3.47;;
23300;SDS011;11819;51.394;12.340;2023-05-10T14:30:00;6.50;;;2.67;;
23300;SDS011;11819;51.394;12.340;2023-05-10T14:32:25;4.68;;;2.97;;
23300;SDS011;11819;51.394;12.340;2023-05-10T14:34:52;4.15;;;3.00;;
23300;SDS011;11819;51.394;12.340;2023-05-10T14:37:18;3.38;;;2.20;;
23300;SDS011;11819;51.394;12.340;2023-05-10T14:39:43;2.75;;;2.08;;
23300;SDS011;11819;51.394;12.340;2023-05-10T14:42:09;3.55;;;2.40;;
23300;SDS011;11819;51.394;12.340;2023-05-10T14:44:34;4.35;;;2.25;;
23300;SDS011;11819;51.394;12.340;2023-05-10T14:47:00;4.72;;;2.90;;
23300;SDS011;11819;51.394;12.340;2023-05-10T14:49:25;4.97;;;3.00;;
23300;SDS011;11819;51.394;12.340;2023-05-10T14:51:51;3.72;;;2.20;;
23300;SDS011;11819;51.394;12.340;2023-05-10T14:54:17;6.03;;;2.88;;
23300;SDS011;11819;51.394;12.340;2023-05-10T14:56:42;3.63;;;2.45;;
23300;SDS011;11819;51.394;12.340;2023-05-10T14:59:08;4.65;;;2.85;;
23300;SDS011;11819;51.394;12.340;2023-05-10T15:01:34;4.20;;;2.63;;